This is the latest recevied weather packets stored in our database for station/object SV6DBG-10. If no packets are shown the sender has not sent any weather packets the latest 10 day(s).
| Time | Temp. | Humidity | Pressure | Rain* | Wind** | Luminosity | Snow |
|---|---|---|---|---|---|---|---|
| 1777264542 | 15.56° C | 56% | 1021.6 hPa | - | - | - | - |
| 1777263642 | 10.56° C | 80% | 1021.6 hPa | - | - | - | - |
| 1777262741 | 9.44° C | 83% | 1021.4 hPa | - | - | - | - |
| 1777261841 | 9.44° C | 82% | 1021.3 hPa | - | - | - | - |
| 1777260941 | 9.44° C | 83% | 1021.2 hPa | - | - | - | - |
| 1777260041 | 10° C | 81% | 1021 hPa | - | - | - | - |
| 1777259141 | 9.44° C | 81% | 1021 hPa | - | - | - | - |
| 1777258241 | 9.44° C | 81% | 1020.9 hPa | - | - | - | - |
| 1777257341 | 8.89° C | 81% | 1021 hPa | - | - | - | - |
| 1777256440 | 9.44° C | 81% | 1020.9 hPa | - | - | - | - |
| 1777255540 | 10° C | 81% | 1021 hPa | - | - | - | - |
| 1777254640 | 10° C | 79% | 1020.9 hPa | - | - | - | - |
| 1777253740 | 10° C | 81% | 1021 hPa | - | - | - | - |
| 1777252840 | 10.56° C | 78% | 1020.9 hPa | - | - | - | - |
| 1777251940 | 10.56° C | 78% | 1020.9 hPa | - | - | - | - |
| 1777251039 | 10.56° C | 78% | 1021 hPa | - | - | - | - |
| 1777250139 | 10.56° C | 77% | 1020.9 hPa | - | - | - | - |
| 1777249239 | 11.11° C | 77% | 1020.9 hPa | - | - | - | - |
| 1777248339 | 11.11° C | 79% | 1021 hPa | - | - | - | - |
| 1777247439 | 11.67° C | 77% | 1021 hPa | - | - | - | - |
| 1777246539 | 12.22° C | 76% | 1021.1 hPa | - | - | - | - |
| 1777245638 | 12.22° C | 73% | 1021 hPa | - | - | - | - |
| 1777244738 | 12.78° C | 72% | 1021.1 hPa | - | - | - | - |
| 1777243838 | 13.33° C | 73% | 1021.1 hPa | - | - | - | - |
| 1777242938 | 13.33° C | 74% | 1021 hPa | - | - | - | - |
* Rain since midnight (hover to see other rain measurements)
** Current wind speed in m/s (hover to see current wind gust speed)